createdAt,value
2018-01-21T00:01:35.716Z,77.80
2018-01-21T00:04:03.261Z,78.00
2018-01-21T00:06:30.785Z,78.20
2018-01-21T00:08:58.288Z,78.40
2018-01-21T00:11:25.805Z,78.80
2018-01-21T00:13:53.316Z,78.90
2018-01-21T00:16:20.824Z,79.00
2018-01-21T00:18:48.331Z,79.10
2018-01-21T00:21:15.861Z,79.50
2018-01-21T00:23:43.372Z,79.80
2018-01-21T00:26:10.875Z,79.80
2018-01-21T00:28:38.427Z,79.70
2018-01-21T00:31:05.935Z,80.00
2018-01-21T00:33:33.484Z,80.00
2018-01-21T00:36:01.012Z,79.90
2018-01-21T00:38:28.516Z,80.10
2018-01-21T00:40:56.812Z,80.50
2018-01-21T00:43:24.332Z,80.40
2018-01-21T00:45:51.841Z,80.40
2018-01-21T00:48:19.343Z,80.50
2018-01-21T00:50:46.888Z,81.40
2018-01-21T00:53:14.391Z,81.40
2018-01-21T00:55:41.900Z,80.80
2018-01-21T00:58:09.426Z,80.90
2018-01-21T01:00:36.952Z,80.80
2018-01-21T01:03:04.459Z,81.00
2018-01-21T01:05:31.975Z,81.00
2018-01-21T01:08:00.262Z,81.20
2018-01-21T01:10:28.541Z,81.10
2018-01-21T01:12:56.065Z,81.00
2018-01-21T01:15:23.588Z,81.00
2018-01-21T01:17:51.104Z,81.10
2018-01-21T01:20:19.391Z,81.70
2018-01-21T01:22:47.651Z,81.90
2018-01-21T01:25:15.919Z,82.00
2018-01-21T01:27:43.447Z,81.80
2018-01-21T01:30:10.967Z,82.00
2018-01-21T01:32:38.483Z,82.20
2018-01-21T01:35:06.019Z,82.20
2018-01-21T01:37:33.534Z,82.00
2018-01-21T01:40:01.812Z,81.90
2018-01-21T01:42:30.106Z,81.90
2018-01-21T01:44:57.621Z,81.90
2018-01-21T01:47:25.150Z,82.20
2018-01-21T01:49:52.671Z,82.20
2018-01-21T01:52:20.172Z,82.00
2018-01-21T01:54:47.689Z,82.20
2018-01-21T01:57:15.238Z,82.00
2018-01-21T01:59:43.511Z,82.10
2018-01-21T02:02:11.818Z,82.30
2018-01-21T02:04:39.351Z,82.20
2018-01-21T02:07:06.883Z,82.30
2018-01-21T02:09:34.405Z,82.60
2018-01-21T02:12:01.921Z,82.30
2018-01-21T02:14:30.200Z,82.80
2018-01-21T02:16:57.723Z,82.80
2018-01-21T02:19:25.256Z,82.90
2018-01-21T02:21:52.769Z,83.10
2018-01-21T02:24:20.273Z,83.00
2018-01-21T02:26:47.799Z,83.30
2018-01-21T02:29:16.088Z,83.60
2018-01-21T02:31:43.620Z,83.50
2018-01-21T02:34:11.135Z,83.40
2018-01-21T02:36:38.663Z,83.20
2018-01-21T02:39:06.174Z,83.30
2018-01-21T02:41:33.687Z,83.40
2018-01-21T02:44:01.208Z,83.50
2018-01-21T02:46:28.720Z,83.70
2018-01-21T02:48:56.240Z,84.00
2018-01-21T02:51:23.773Z,83.90
2018-01-21T02:53:51.288Z,83.70
2018-01-21T02:56:18.815Z,83.60
2018-01-21T02:58:46.331Z,83.60
2018-01-21T03:01:13.835Z,83.80
2018-01-21T03:03:41.367Z,84.10
2018-01-21T03:06:08.876Z,84.10
2018-01-21T03:08:36.391Z,84.00
2018-01-21T03:11:03.925Z,83.90
2018-01-21T03:13:32.211Z,84.10
2018-01-21T03:15:59.727Z,84.10
2018-01-21T03:18:27.288Z,84.10
2018-01-21T03:20:54.815Z,84.20
2018-01-21T03:23:23.087Z,84.50
2018-01-21T03:25:51.372Z,84.60
2018-01-21T03:28:19.687Z,84.80
2018-01-21T03:30:47.184Z,84.80
2018-01-21T03:33:14.701Z,84.80
2018-01-21T03:35:42.205Z,84.90
2018-01-21T03:38:09.737Z,85.00
2018-01-21T03:40:37.253Z,84.80
2018-01-21T03:43:04.765Z,84.90
2018-01-21T03:45:32.323Z,84.90
2018-01-21T03:47:59.851Z,84.90
2018-01-21T03:50:27.382Z,85.60
2018-01-21T03:52:55.709Z,85.00
2018-01-21T03:55:24.046Z,84.80
2018-01-21T03:57:51.591Z,85.00
2018-01-21T04:00:19.943Z,85.40
2018-01-21T04:02:47.488Z,85.30
2018-01-21T04:05:15.030Z,85.50
2018-01-21T04:07:42.566Z,85.50
2018-01-21T04:10:10.135Z,85.90
2018-01-21T04:12:37.729Z,86.20
2018-01-21T04:15:05.306Z,86.40
2018-01-21T04:17:32.849Z,86.40
2018-01-21T04:20:00.381Z,86.80
2018-01-21T04:22:27.905Z,87.80
2018-01-21T04:24:55.445Z,87.00
2018-01-21T04:27:22.953Z,87.40
2018-01-21T04:29:50.473Z,87.60
2018-01-21T04:32:18.775Z,87.60
2018-01-21T04:34:46.308Z,87.60
2018-01-21T04:37:14.617Z,87.70
2018-01-21T04:39:42.171Z,87.70
2018-01-21T04:42:09.717Z,88.00
2018-01-21T04:44:38.049Z,88.40
2018-01-21T04:47:05.657Z,88.30
2018-01-21T04:49:33.195Z,88.50
2018-01-21T04:52:00.776Z,88.90
2018-01-21T04:54:28.323Z,89.20
2018-01-21T04:56:55.837Z,89.20
2018-01-21T04:59:23.354Z,89.50
2018-01-21T05:01:51.653Z,89.80
2018-01-21T05:04:19.208Z,89.70
2018-01-21T05:06:47.844Z,90.00
2018-01-21T05:09:15.393Z,90.00
2018-01-21T05:11:42.923Z,90.00
2018-01-21T05:14:11.218Z,90.30
2018-01-21T05:16:38.751Z,90.30
2018-01-21T05:19:06.255Z,90.30
2018-01-21T05:21:33.759Z,90.30
2018-01-21T05:24:01.289Z,90.40
2018-01-21T05:26:29.575Z,90.40
2018-01-21T05:28:57.083Z,90.30
2018-01-21T05:31:24.599Z,90.40
2018-01-21T05:33:52.873Z,90.30
2018-01-21T05:36:20.387Z,90.30
2018-01-21T05:38:47.925Z,90.40
2018-01-21T05:41:15.431Z,90.40
2018-01-21T05:43:42.947Z,90.40
2018-01-21T05:46:10.462Z,90.40
2018-01-21T05:48:37.979Z,90.40
2018-01-21T05:51:05.510Z,90.30
2018-01-21T05:53:33.047Z,90.30
2018-01-21T05:56:00.555Z,90.30
2018-01-21T05:58:28.077Z,90.20
2018-01-21T06:00:55.587Z,90.10
2018-01-21T06:03:23.103Z,90.00
2018-01-21T06:05:50.605Z,89.70
2018-01-21T06:08:18.133Z,89.80
2018-01-21T06:10:45.631Z,89.70
2018-01-21T06:13:13.141Z,89.60
2018-01-21T06:15:40.672Z,89.50
2018-01-21T06:18:08.962Z,89.50
2018-01-21T06:20:36.475Z,89.40
2018-01-21T06:23:04.003Z,89.30
2018-01-21T06:25:31.522Z,89.20
2018-01-21T06:27:59.813Z,89.00
2018-01-21T06:30:27.359Z,88.90
2018-01-21T06:32:55.655Z,88.60
2018-01-21T06:35:23.162Z,88.50
2018-01-21T06:37:50.679Z,88.10
2018-01-21T06:40:18.181Z,87.80
2018-01-21T06:42:45.707Z,87.80
2018-01-21T06:45:13.230Z,87.90
2018-01-21T06:47:41.501Z,88.10
2018-01-21T06:50:09.767Z,88.10
2018-01-21T06:52:37.285Z,88.10
2018-01-21T06:55:04.801Z,87.80
2018-01-21T06:57:32.315Z,87.60
2018-01-21T06:59:59.841Z,87.70
2018-01-21T07:02:27.356Z,87.80
2018-01-21T07:04:55.645Z,87.00
2018-01-21T07:07:23.172Z,86.90
2018-01-21T07:09:50.675Z,86.40
2018-01-21T07:12:18.973Z,86.30
2018-01-21T07:14:46.502Z,86.10
2018-01-21T07:17:14.027Z,86.30
2018-01-21T07:19:41.554Z,85.90
2018-01-21T07:22:09.091Z,85.20
2018-01-21T07:24:36.612Z,85.00
2018-01-21T07:27:04.131Z,85.40
2018-01-21T07:29:31.675Z,85.60
2018-01-21T07:31:59.185Z,85.20
2018-01-21T07:34:26.692Z,85.30
2018-01-21T07:36:54.228Z,84.80
2018-01-21T07:39:21.737Z,85.00
2018-01-21T07:41:49.695Z,85.40
2018-01-21T07:44:17.235Z,85.30
2018-01-21T07:46:44.755Z,85.30
2018-01-21T07:49:12.273Z,85.00
2018-01-21T07:51:39.792Z,85.40
2018-01-21T07:54:07.311Z,83.90
2018-01-21T07:56:35.589Z,85.10
2018-01-21T07:59:03.115Z,84.20
2018-01-21T08:01:30.611Z,83.80
2018-01-21T08:03:58.137Z,84.00
2018-01-21T08:06:25.675Z,84.00
2018-01-21T08:08:53.193Z,84.40
2018-01-21T08:11:20.723Z,83.60
2018-01-21T08:13:48.273Z,84.00
2018-01-21T08:16:15.798Z,83.70
2018-01-21T08:18:43.331Z,83.20
2018-01-21T08:21:10.854Z,83.60
2018-01-21T08:23:38.367Z,84.00
2018-01-21T08:26:06.645Z,83.10
2018-01-21T08:28:34.949Z,83.30
2018-01-21T08:31:03.235Z,83.60
2018-01-21T08:33:30.746Z,82.90
2018-01-21T08:36:04.007Z,83.20
2018-01-21T08:38:37.235Z,83.50
2018-01-21T08:41:10.436Z,83.10
2018-01-21T08:43:38.712Z,83.60
2018-01-21T08:46:07.015Z,83.20
2018-01-21T08:48:34.538Z,83.10
2018-01-21T08:51:02.065Z,82.90
2018-01-21T08:53:29.585Z,82.60
2018-01-21T08:55:57.116Z,82.80
2018-01-21T08:58:24.633Z,82.50
2018-01-21T09:00:52.919Z,83.00
2018-01-21T09:03:20.450Z,83.00
2018-01-21T09:05:47.959Z,82.90
2018-01-21T09:08:15.470Z,82.80
2018-01-21T09:10:42.993Z,82.90
2018-01-21T09:13:11.271Z,82.60
2018-01-21T09:15:39.551Z,82.00
2018-01-21T09:18:07.850Z,81.90
2018-01-21T09:20:35.365Z,81.80
2018-01-21T09:23:02.895Z,82.50
2018-01-21T09:25:30.429Z,82.20
2018-01-21T09:27:58.724Z,82.90
2018-01-21T09:30:27.013Z,82.50
2018-01-21T09:32:54.535Z,82.50
2018-01-21T09:35:22.070Z,81.70
2018-01-21T09:37:50.486Z,81.10
2018-01-21T09:40:18.026Z,81.20
2018-01-21T09:42:45.565Z,81.80
2018-01-21T09:45:13.087Z,80.70
2018-01-21T09:47:40.614Z,80.30
2018-01-21T09:50:08.143Z,80.40
2018-01-21T09:52:35.651Z,80.30
2018-01-21T09:55:03.183Z,80.90
2018-01-21T09:57:30.699Z,80.20
2018-01-21T09:59:58.208Z,80.70
2018-01-21T10:02:25.746Z,80.70
2018-01-21T10:04:53.271Z,80.10
2018-01-21T10:07:20.781Z,80.30
2018-01-21T10:09:48.291Z,80.50
2018-01-21T10:12:15.816Z,79.80
2018-01-21T10:14:43.355Z,79.50
2018-01-21T10:17:10.883Z,80.20
2018-01-21T10:19:39.169Z,80.40
2018-01-21T10:22:07.454Z,79.40
2018-01-21T10:24:35.739Z,79.10
2018-01-21T10:27:03.269Z,79.10
2018-01-21T10:29:30.778Z,78.70
2018-01-21T10:31:58.303Z,78.40
2018-01-21T10:34:26.593Z,78.40
2018-01-21T10:36:54.107Z,78.30
2018-01-21T10:39:21.626Z,78.70
2018-01-21T10:41:49.139Z,79.10
2018-01-21T10:44:16.656Z,79.10
2018-01-21T10:46:44.187Z,79.40
2018-01-21T10:49:11.701Z,79.20
2018-01-21T10:51:39.211Z,77.80
2018-01-21T10:54:06.723Z,78.50
2018-01-21T10:56:34.234Z,77.10
2018-01-21T10:59:01.815Z,76.90
2018-01-21T11:01:29.355Z,77.50
2018-01-21T11:03:56.892Z,77.30
2018-01-21T11:06:24.426Z,77.30
2018-01-21T11:08:52.007Z,75.80
2018-01-21T11:11:20.374Z,77.10
2018-01-21T11:13:47.917Z,77.00
2018-01-21T11:16:15.449Z,77.10
2018-01-21T11:18:42.985Z,77.20
2018-01-21T11:21:10.507Z,78.00
2018-01-21T11:23:38.839Z,76.90
2018-01-21T11:26:06.421Z,76.70
2018-01-21T11:28:34.033Z,77.30
2018-01-21T11:31:01.691Z,76.30
2018-01-21T11:33:29.241Z,75.20
2018-01-21T11:35:57.527Z,76.00
2018-01-21T11:38:25.091Z,75.90
2018-01-21T11:40:52.626Z,76.10
2018-01-21T11:43:20.933Z,76.80
2018-01-21T11:45:48.453Z,76.70
2018-01-21T11:48:15.973Z,75.70
2018-01-21T11:50:43.491Z,75.50
2018-01-21T11:53:11.779Z,74.60
2018-01-21T11:55:40.069Z,75.50
2018-01-21T11:58:07.583Z,75.50
2018-01-21T12:00:35.093Z,75.40
2018-01-21T12:03:02.626Z,75.30
2018-01-21T12:05:30.147Z,75.70
2018-01-21T12:07:57.659Z,75.30
2018-01-21T12:10:25.157Z,75.30
2018-01-21T12:12:52.663Z,75.70
2018-01-21T12:15:20.204Z,77.40
2018-01-21T12:17:47.699Z,77.20
2018-01-21T12:20:15.212Z,76.70
2018-01-21T12:22:42.707Z,76.60
2018-01-21T12:25:10.221Z,75.80
2018-01-21T12:27:37.729Z,76.20
2018-01-21T12:30:05.244Z,76.40
2018-01-21T12:32:33.565Z,76.40
2018-01-21T12:35:01.057Z,75.80
2018-01-21T12:37:28.572Z,76.80
2018-01-21T12:39:56.093Z,77.10
2018-01-21T12:42:23.591Z,77.70
2018-01-21T12:44:51.981Z,77.20
2018-01-21T12:47:19.488Z,77.40
2018-01-21T12:49:47.003Z,77.10
2018-01-21T12:52:14.529Z,76.70
2018-01-21T12:54:42.027Z,77.00
2018-01-21T12:57:09.528Z,77.80
2018-01-21T12:59:37.050Z,78.40
2018-01-21T13:02:04.553Z,76.60
2018-01-21T13:04:32.834Z,77.20
2018-01-21T13:07:01.215Z,76.90
2018-01-21T13:09:29.488Z,77.70
2018-01-21T13:11:57.005Z,77.60
2018-01-21T13:14:24.530Z,77.60
2018-01-21T13:16:52.831Z,78.50
2018-01-21T13:19:20.335Z,78.40
2018-01-21T13:21:48.637Z,78.80
2018-01-21T13:24:16.149Z,78.70
2018-01-21T13:26:43.680Z,79.10
2018-01-21T13:29:11.200Z,79.70
2018-01-21T13:31:38.725Z,80.20
2018-01-21T13:34:06.238Z,80.80
2018-01-21T13:36:33.759Z,80.70
2018-01-21T13:39:01.267Z,80.80
2018-01-21T13:41:28.789Z,80.20
2018-01-21T13:43:57.094Z,81.20
2018-01-21T13:46:24.608Z,81.10
2018-01-21T13:48:52.111Z,81.30
2018-01-21T13:51:19.729Z,81.10
2018-01-21T13:53:47.245Z,81.40
2018-01-21T13:56:14.953Z,81.40
2018-01-21T13:58:43.242Z,81.60
2018-01-21T14:01:11.522Z,81.90
2018-01-21T14:03:39.811Z,81.70
2018-01-21T14:06:07.339Z,81.60
2018-01-21T14:08:35.618Z,81.10
2018-01-21T14:11:03.902Z,80.70
2018-01-21T14:13:32.193Z,81.20
2018-01-21T14:16:00.474Z,81.30
2018-01-21T14:18:27.976Z,81.10
2018-01-21T14:20:55.497Z,81.20
2018-01-21T14:23:23.000Z,81.30
2018-01-21T14:25:50.515Z,82.00
2018-01-21T14:28:18.050Z,81.50
2018-01-21T14:30:46.336Z,82.80
2018-01-21T14:33:14.617Z,82.70
2018-01-21T14:35:42.147Z,82.50
2018-01-21T14:38:09.692Z,82.50
2018-01-21T14:40:37.201Z,82.90
2018-01-21T14:43:05.486Z,82.70
2018-01-21T14:45:33.000Z,82.50
2018-01-21T14:48:00.505Z,82.50
2018-01-21T14:50:28.038Z,82.50
2018-01-21T14:52:56.308Z,82.70
2018-01-21T14:55:24.602Z,82.60
2018-01-21T14:57:52.116Z,82.60
2018-01-21T15:00:19.624Z,82.90
2018-01-21T15:02:47.143Z,83.00
2018-01-21T15:05:14.659Z,83.10
2018-01-21T15:07:42.168Z,83.10
2018-01-21T15:10:10.448Z,82.90
2018-01-21T15:12:37.986Z,82.90
2018-01-21T15:15:05.496Z,83.00
2018-01-21T15:17:33.027Z,82.80
2018-01-21T15:20:00.574Z,82.70
2018-01-21T15:22:28.080Z,82.70
2018-01-21T15:24:55.592Z,83.00
2018-01-21T15:27:23.144Z,83.00
2018-01-21T15:29:50.646Z,83.20
2018-01-21T15:32:18.176Z,82.90
2018-01-21T15:34:45.690Z,83.00
2018-01-21T15:37:13.224Z,82.70
2018-01-21T15:39:40.738Z,82.70
2018-01-21T15:42:08.268Z,82.80
2018-01-21T15:44:35.797Z,82.80
2018-01-21T15:47:03.343Z,83.60
2018-01-21T15:49:30.897Z,82.80
2018-01-21T15:51:59.227Z,82.90
2018-01-21T15:54:26.758Z,82.90
2018-01-21T15:56:54.326Z,82.80
2018-01-21T15:59:21.832Z,82.90
2018-01-21T16:01:50.200Z,83.00
2018-01-21T16:04:17.749Z,82.70
2018-01-21T16:06:45.265Z,82.40
2018-01-21T16:09:12.776Z,82.50
2018-01-21T16:11:40.329Z,82.50
2018-01-21T16:14:07.865Z,82.50
2018-01-21T16:16:35.372Z,81.70
2018-01-21T16:19:02.903Z,81.60
2018-01-21T16:21:30.428Z,81.40
2018-01-21T16:23:57.946Z,81.20
2018-01-21T16:26:25.472Z,80.50
2018-01-21T16:28:53.004Z,80.60
2018-01-21T16:31:21.292Z,80.10
2018-01-21T16:33:49.606Z,79.00
2018-01-21T16:36:17.961Z,79.00
2018-01-21T16:39:02.173Z,79.60
2018-01-21T16:41:29.747Z,78.40
2018-01-21T16:43:57.312Z,78.50
2018-01-21T16:46:24.901Z,78.10
2018-01-21T16:48:52.464Z,77.70
2018-01-21T16:51:19.994Z,77.50
2018-01-21T16:53:47.586Z,77.00
2018-01-21T16:56:15.290Z,77.00
2018-01-21T16:58:42.836Z,76.20
2018-01-21T17:01:11.169Z,75.40
2018-01-21T17:03:38.769Z,75.30
2018-01-21T17:06:06.334Z,74.30
2018-01-21T17:08:34.746Z,74.30
2018-01-21T17:11:02.400Z,74.30
2018-01-21T17:13:29.974Z,73.70
2018-01-21T17:15:57.552Z,73.20
2018-01-21T17:18:25.097Z,73.80
2018-01-21T17:20:52.646Z,73.10
2018-01-21T17:23:20.227Z,71.80
2018-01-21T17:25:47.760Z,71.50
2018-01-21T17:28:15.326Z,70.90
2018-01-21T17:30:42.858Z,71.40
2018-01-21T17:33:10.422Z,71.50
2018-01-21T17:35:38.726Z,71.50
2018-01-21T17:38:06.364Z,71.30
2018-01-21T17:40:34.333Z,71.50
2018-01-21T17:43:01.983Z,71.90
2018-01-21T17:45:30.638Z,72.10
2018-01-21T17:47:59.407Z,72.10
2018-01-21T17:50:26.999Z,72.70
2018-01-21T17:52:54.566Z,71.80
2018-01-21T17:55:22.102Z,70.80
2018-01-21T17:57:49.670Z,71.40
2018-01-21T18:00:17.253Z,71.10
2018-01-21T18:02:44.782Z,71.40
2018-01-21T18:05:12.314Z,69.80
2018-01-21T18:07:39.864Z,69.90
2018-01-21T18:10:07.493Z,70.30
2018-01-21T18:12:36.037Z,70.50
2018-01-21T18:15:03.656Z,70.40
2018-01-21T18:17:31.214Z,70.10
2018-01-21T18:19:59.538Z,70.90
2018-01-21T18:22:27.114Z,70.90
2018-01-21T18:24:54.662Z,71.50
2018-01-21T18:27:22.204Z,71.30
2018-01-21T18:29:49.746Z,70.60
2018-01-21T18:32:17.317Z,70.80
2018-01-21T18:34:44.825Z,70.50
2018-01-21T18:37:13.129Z,69.60
2018-01-21T18:39:40.666Z,69.70
2018-01-21T18:42:08.209Z,69.60
2018-01-21T18:44:36.526Z,68.60
2018-01-21T18:47:04.098Z,68.60
2018-01-21T18:49:31.640Z,68.80
2018-01-21T18:51:59.210Z,69.00
2018-01-21T18:54:26.767Z,69.10
2018-01-21T18:56:54.300Z,68.70
2018-01-21T18:59:22.625Z,68.40
2018-01-21T19:01:50.145Z,68.30
2018-01-21T19:04:17.688Z,68.10
2018-01-21T19:06:45.212Z,68.90
2018-01-21T19:09:12.811Z,68.30
2018-01-21T19:11:41.133Z,69.00
2018-01-21T19:14:08.689Z,68.90
2018-01-21T19:16:36.222Z,69.00
2018-01-21T19:19:03.776Z,69.20
2018-01-21T19:21:31.323Z,69.30
2018-01-21T19:23:58.875Z,69.30
2018-01-21T19:26:26.402Z,69.00
2018-01-21T19:28:54.037Z,69.30
2018-01-21T19:31:21.586Z,69.80
2018-01-21T19:33:49.121Z,69.90
2018-01-21T19:36:16.681Z,70.20
2018-01-21T19:38:50.568Z,70.80
2018-01-21T19:41:32.988Z,70.80
2018-01-21T19:47:03.724Z,70.80
2018-01-21T19:49:31.248Z,71.00
2018-01-21T19:51:58.765Z,71.20
2018-01-21T19:54:26.361Z,71.30
2018-01-21T19:56:53.904Z,71.40
2018-01-21T19:59:21.450Z,71.00
2018-01-21T20:01:49.012Z,71.20
2018-01-21T20:04:17.305Z,71.40
2018-01-21T20:06:44.836Z,71.40
2018-01-21T20:09:12.401Z,71.10
2018-01-21T20:11:39.914Z,71.40
2018-01-21T20:14:07.438Z,71.40
2018-01-21T20:16:35.764Z,71.20
2018-01-21T20:19:03.320Z,71.00
2018-01-21T20:21:30.873Z,71.40
2018-01-21T20:23:58.438Z,71.10
2018-01-21T20:26:25.983Z,71.20
2018-01-21T20:28:53.563Z,71.20
2018-01-21T20:31:21.176Z,71.20
2018-01-21T20:33:48.754Z,71.50
2018-01-21T20:36:16.326Z,71.40
2018-01-21T20:38:43.888Z,71.40
2018-01-21T20:41:11.428Z,71.40
2018-01-21T20:43:38.973Z,71.10
2018-01-21T20:46:07.286Z,71.50
2018-01-21T20:48:34.862Z,71.50
2018-01-21T20:51:07.984Z,71.10
2018-01-21T20:53:41.900Z,71.10
2018-01-21T20:56:09.426Z,71.00
2018-01-21T20:58:37.018Z,71.10
2018-01-21T21:01:04.566Z,71.50
2018-01-21T21:03:32.132Z,71.40
2018-01-21T21:05:59.670Z,71.40
2018-01-21T21:08:27.184Z,71.10
2018-01-21T21:10:54.772Z,71.10
2018-01-21T21:13:22.328Z,71.20
2018-01-21T21:15:49.906Z,71.40
2018-01-21T21:18:18.231Z,71.80
2018-01-21T21:20:45.752Z,71.70
2018-01-21T21:23:13.338Z,71.50
2018-01-21T21:25:40.879Z,71.90
2018-01-21T21:28:09.172Z,71.60
2018-01-21T21:30:36.748Z,71.40
2018-01-21T21:33:04.303Z,71.50
2018-01-21T21:35:31.812Z,71.40
2018-01-21T21:37:59.330Z,71.60
2018-01-21T21:40:27.078Z,71.60
2018-01-21T21:42:55.423Z,71.80
2018-01-21T21:45:22.930Z,71.70
2018-01-21T21:47:50.472Z,71.70
2018-01-21T21:50:17.992Z,71.90
2018-01-21T21:52:45.528Z,72.00
2018-01-21T21:55:13.080Z,72.30
2018-01-21T21:57:40.620Z,72.30
2018-01-21T22:00:08.145Z,72.60
2018-01-21T22:02:35.756Z,72.50
2018-01-21T22:05:03.276Z,72.70
2018-01-21T22:07:30.816Z,72.70
2018-01-21T22:09:58.374Z,72.80
2018-01-21T22:12:25.896Z,73.00
2018-01-21T22:14:54.609Z,73.10
2018-01-21T22:17:22.156Z,73.20
2018-01-21T22:19:49.708Z,73.20
2018-01-21T22:22:17.206Z,73.40
2018-01-21T22:24:44.730Z,73.50
2018-01-21T22:27:12.255Z,73.60
2018-01-21T22:29:39.774Z,73.50
2018-01-21T22:32:08.097Z,73.90
2018-01-21T22:34:35.614Z,73.80
2018-01-21T22:37:03.163Z,73.90
2018-01-21T22:39:30.706Z,74.00
2018-01-21T22:41:58.240Z,74.20
2018-01-21T22:44:25.766Z,74.30
2018-01-21T22:46:54.120Z,74.40
2018-01-21T22:49:21.656Z,74.30
2018-01-21T22:51:49.192Z,74.40
2018-01-21T22:54:16.758Z,74.50
2018-01-21T22:56:44.278Z,74.60
2018-01-21T22:59:11.825Z,74.60
2018-01-21T23:01:39.448Z,74.60
2018-01-21T23:04:07.006Z,74.80
2018-01-21T23:06:34.530Z,74.70
2018-01-21T23:09:02.118Z,74.30
2018-01-21T23:11:29.637Z,74.40
2018-01-21T23:13:57.182Z,74.20
2018-01-21T23:16:24.710Z,74.20
2018-01-21T23:18:52.232Z,74.30
2018-01-21T23:21:19.741Z,74.20
2018-01-21T23:23:47.359Z,74.50
2018-01-21T23:26:15.094Z,74.30
2018-01-21T23:28:42.651Z,74.10
2018-01-21T23:31:10.222Z,73.40
2018-01-21T23:33:37.795Z,73.50
2018-01-21T23:36:05.340Z,73.60
2018-01-21T23:38:32.925Z,73.70
2018-01-21T23:41:00.482Z,73.60
2018-01-21T23:43:28.007Z,73.70
2018-01-21T23:45:55.563Z,74.00
2018-01-21T23:48:23.093Z,74.00
2018-01-21T23:50:50.664Z,74.00
2018-01-21T23:53:18.204Z,73.90
2018-01-21T23:55:45.730Z,74.20
2018-01-21T23:58:13.271Z,74.20
